Sunday, October 22, 2017, 4:15 PM CDT
Back to Local

KP28, Medicine Lodge

Location: Medicine Lodge, KS, United States Lat: 37.283
Local Time: 4:15 PM CDT (21:15 GMT) Lon: -98.55
Time Zone: US/Central Elev: 1538 ft

Show me the last for .
Show Decoded

2017-10-22 15:56 METAR KP28 222056Z AUTO 27009KT 23/M06 A3011 RMK AO1 SLP192 T02331056 56026 =
2017-10-22 14:56 METAR KP28 221956Z AUTO 32009G15KT 270V350 23/M04 A3013 RMK AO1 SLP197 T02331044
                 =
2017-10-22 13:56 METAR KP28 221856Z AUTO 29007KT 22/M03 A3015 RMK AO1 SLP205 T02221033 =
2017-10-22 12:56 METAR KP28 221756Z AUTO VRB03KT 19/00 A3019 RMK AO1 SLP220 T01890000 10194 20022
                 58008 =
2017-10-22 11:56 METAR KP28 221656Z AUTO 29006KT 17/00 A3022 RMK AO1 SLP229 T01720000 =
2017-10-22 10:56 METAR KP28 221556Z AUTO 28006KT 14/02 A3022 RMK AO1 SLP231 T01440017 =
2017-10-22 09:56 METAR KP28 221456Z AUTO 28007KT 10/03 A3022 RMK AO1 SLP230 T01000033 53008 =
2017-10-22 08:56 METAR KP28 221356Z AUTO 29004KT 06/03 A3021 RMK AO1 SLP228 T00560033 =
2017-10-22 07:56 METAR KP28 221256Z AUTO 30004KT 03/02 A3019 RMK AO1 SLP225 T00280017 =
2017-10-22 06:56 METAR KP28 221156Z AUTO 34005KT 03/02 A3019 RMK AO1 SLP223 T00330017 10106 20028
                 51025 =
2017-10-22 05:56 METAR KP28 221056Z AUTO 33003KT 03/02 A3017 RMK AO1 SLP218 T00330017 =
2017-10-22 04:56 METAR KP28 220956Z AUTO 29004KT 06/03 A3015 RMK AO1 SLP208 T00560028 =
2017-10-22 03:56 METAR KP28 220856Z AUTO 27004KT 07/03 A3011 RMK AO1 SLP193 T00670033 51020 =
2017-10-22 02:56 METAR KP28 220756Z AUTO 28004KT 08/03 A3010 RMK AO1 SLP189 T00780033 =
2017-10-22 01:56 METAR KP28 220656Z AUTO 29003KT 10/03 A3007 RMK AO1 SLP175 T01000033 =
2017-10-22 00:56 METAR KP28 220556Z AUTO 36004KT 11/03 A3005 RMK AO1 SLP168 T01060033 10189 20106
                 402440106 51027 =
2017-10-21 23:56 METAR KP28 220456Z AUTO 34004KT 13/02 A3004 RMK AO1 SLP163 T01280022 =
2017-10-21 22:56 METAR KP28 220356Z AUTO 02014KT 14/03 A3001 RMK AO1 PK WND 36026/0310 PRESRR
                 SLP154 T01390028 =
2017-10-21 21:56 METAR KP28 220256Z AUTO 36015G23KT 15/02 A2997 RMK AO1 PK WND 35030/0157 SLP139
                 T01500017 53022 =
2017-10-21 20:56 METAR KP28 220156Z AUTO 35015G28KT 16/03 A2994 RMK AO1 PK WND 34028/0153 SLP130
                 T01610028 =
2017-10-21 19:56 METAR KP28 220056Z AUTO 34014G26KT 17/04 A2991 RMK AO1 PK WND 33030/0044 SLP119
                 T01720039 =
2017-10-21 18:56 METAR KP28 212356Z AUTO 35015G25KT 19/04 A2990 RMK AO1 PK WND 33029/2308 SLP114
                 T01890039 10244 20183 53034 =
2017-10-21 17:56 METAR KP28 212256Z AUTO 35011G22KT 20/05 A2983 RMK AO1 SLP090 T02000050 =
2017-10-21 16:56 METAR KP28 212156Z AUTO 34005KT 18/07 A2983 RMK AO1 PRESRR SLP091 T01830067 =

Support USWX by starting your Amazon purchase here.